Nemo, TX (76070)

1:24 PM CDT on October 23, 2014 (GMT -0500)
Pecan Plantation/S. Ravenswood | Change Station
CLOSE
Current Station
Personal Weather Station
Location: Granbury, TX
Elevation: 725 ft
Nearby Weather Stations

Elev 725 ft 32.36 °N, 97.65 °W | Updated 10 seconds ago

Partly Cloudy
Partly Cloudy
78.5 °F
Feels Like 80 °F
N
9.0
Wind Variable Wind from South
Gusts 9.0 mph

Today
High -- | Low -- °F
--% Chance of Precip.
Yesterday
High -- | Low -- °F
Precip. -- in
7:40 AM 6:48 PM
Waning Crescent, 0% visible
Pressure 30.15 in
Visibility 10.0 miles
Clouds Few 7500 ft
Few 9000 ft
Heat Index 80 °F
Dew Point 62 °F
Humidity 56%
Rainfall 0.00 in
Snow Depth Not available.
UV 6 out of 12
Pollen 5.20 out of 12
Ozone Good
PM2.5 Moderate
Flu Activity Sporadic
METAR KCPT 231815Z AUTO 17005KT 10SM FEW075 FEW090 24/15 A3015 RMK AO2

More Conditions Fewer Conditions

Pressure 30.15 in
Visibility 10.0 miles
Clouds Few 7500 ft
Few 9000 ft
Heat Index 80 °F
Dew Point 62 °F
Humidity 56%
Rainfall 0.00 in
Snow Depth Not available.
UV 6 out of 12
Pollen 5.20 out of 12
Ozone Good
PM2.5 Moderate
Flu Activity Sporadic
METAR KCPT 231815Z AUTO 17005KT 10SM FEW075 FEW090 24/15 A3015 RMK AO2

More Conditions Fewer Conditions

10-Day Weather Forecast

Almanac

Astronomy

Oct. 23, 2014 Rise Set
Actual Time 7:40 AM CDT 6:48 PM CDT
Civil Twilight 7:15 AM CDT 7:13 PM CDT
Nautical Twilight 6:46 AM CDT 7:42 PM CDT
Astronomical Twilight 6:18 AM CDT 8:11 PM CDT
Moon 7:22 AM CDT 6:51 PM CDT
Length of Visible Light 11h 58m
Length of Day
11h 08m
Tomorrow will be 1m 49s shorter.
Waning Crescent, 0% of the Moon is Illuminated
Today
Waning Crescent
Oct 23
New
Oct 30
First Quarter
Nov 6
Full
Nov 14
Last Quarter

Today's Extremes

State Highs State Lows

Community

WunderPhotos

Upload Photos

1,764,334 photos uploaded!

WunderBlogs® & News

Nearby

Air Quality

  Air Quality AQ Index Pollutant
Yesterday Moderate
PM2.5
Yesterday Moderate
OZONE
Current Moderate
PM2.5
Current Good
OZONE
Thursday Good
PM10
Thursday Good
OZONE
Friday Moderate
OZONE
Friday Good
PM10
Saturday Moderate
OZONE
Saturday Good
PM10
Sunday Moderate
OZONE
Sunday Good
PM10

Snow Depth

Station Depth Elevation
No new snow has been reported.

Earthquake Activity

City Distance Mag. Time & Date
No recent earthquake activity has been reported nearby.
Minimum magnitude displayed is 2.5.

Coastal Water Temperatures

Place Temperature
No Stations Reporting

Nearby Weather Stations